sensor_id;sensor_type;location;lat;lon;timestamp;temperature;humidity
8178;DHT22;4130;48.740;9.132;2022-10-03T00:01:48;10.80;99.90
8178;DHT22;4130;48.740;9.132;2022-10-03T00:04:40;10.80;99.90
8178;DHT22;4130;48.740;9.132;2022-10-03T00:07:19;10.70;99.90
8178;DHT22;4130;48.740;9.132;2022-10-03T00:10:02;10.60;99.90
8178;DHT22;4130;48.740;9.132;2022-10-03T00:12:46;10.50;99.90
8178;DHT22;4130;48.740;9.132;2022-10-03T00:15:20;10.40;99.90
8178;DHT22;4130;48.740;9.132;2022-10-03T00:17:58;10.30;99.90
8178;DHT22;4130;48.740;9.132;2022-10-03T00:20:47;10.30;99.90
8178;DHT22;4130;48.740;9.132;2022-10-03T00:23:21;10.30;99.90
8178;DHT22;4130;48.740;9.132;2022-10-03T00:25:54;10.10;99.90
8178;DHT22;4130;48.740;9.132;2022-10-03T00:28:44;10.00;99.90
8178;DHT22;4130;48.740;9.132;2022-10-03T00:31:17;10.00;99.90
8178;DHT22;4130;48.740;9.132;2022-10-03T00:34:00;10.10;99.90
8178;DHT22;4130;48.740;9.132;2022-10-03T00:36:39;10.10;99.90
8178;DHT22;4130;48.740;9.132;2022-10-03T00:39:29;10.10;99.90
8178;DHT22;4130;48.740;9.132;2022-10-03T00:42:38;10.20;99.90
8178;DHT22;4130;48.740;9.132;2022-10-03T00:45:34;10.20;99.90
8178;DHT22;4130;48.740;9.132;2022-10-03T00:48:26;10.30;99.90
8178;DHT22;4130;48.740;9.132;2022-10-03T00:51:21;10.40;99.90
8178;DHT22;4130;48.740;9.132;2022-10-03T00:54:01;10.50;99.90
8178;DHT22;4130;48.740;9.132;2022-10-03T00:57:01;10.50;99.90
8178;DHT22;4130;48.740;9.132;2022-10-03T00:59:43;10.50;99.90
8178;DHT22;4130;48.740;9.132;2022-10-03T01:02:28;10.40;99.90
8178;DHT22;4130;48.740;9.132;2022-10-03T01:05:08;10.50;99.90
8178;DHT22;4130;48.740;9.132;2022-10-03T01:10:39;10.50;99.90
8178;DHT22;4130;48.740;9.132;2022-10-03T01:13:28;10.60;99.90
8178;DHT22;4130;48.740;9.132;2022-10-03T01:16:06;10.60;99.90
8178;DHT22;4130;48.740;9.132;2022-10-03T01:18:46;10.60;99.90
8178;DHT22;4130;48.740;9.132;2022-10-03T01:21:23;10.60;99.90
8178;DHT22;4130;48.740;9.132;2022-10-03T01:24:17;10.60;99.90
8178;DHT22;4130;48.740;9.132;2022-10-03T01:26:55;10.50;99.90
8178;DHT22;4130;48.740;9.132;2022-10-03T01:29:34;10.30;99.90
8178;DHT22;4130;48.740;9.132;2022-10-03T01:32:24;10.20;99.90
8178;DHT22;4130;48.740;9.132;2022-10-03T01:35:01;10.00;99.90
8178;DHT22;4130;48.740;9.132;2022-10-03T01:37:39;9.80;99.90
8178;DHT22;4130;48.740;9.132;2022-10-03T01:40:15;9.80;99.90
8178;DHT22;4130;48.740;9.132;2022-10-03T01:42:56;9.70;99.90
8178;DHT22;4130;48.740;9.132;2022-10-03T01:45:34;9.60;99.90
8178;DHT22;4130;48.740;9.132;2022-10-03T01:48:10;9.50;99.90
8178;DHT22;4130;48.740;9.132;2022-10-03T01:50:47;9.40;99.90
8178;DHT22;4130;48.740;9.132;2022-10-03T01:53:24;9.40;99.90
8178;DHT22;4130;48.740;9.132;2022-10-03T01:55:57;9.40;99.90
8178;DHT22;4130;48.740;9.132;2022-10-03T01:58:28;9.50;99.90
8178;DHT22;4130;48.740;9.132;2022-10-03T02:01:05;9.60;99.90
8178;DHT22;4130;48.740;9.132;2022-10-03T02:03:37;9.70;99.90
8178;DHT22;4130;48.740;9.132;2022-10-03T02:06:18;9.90;99.90
8178;DHT22;4130;48.740;9.132;2022-10-03T02:08:51;10.00;99.90
8178;DHT22;4130;48.740;9.132;2022-10-03T02:11:29;10.10;99.90
8178;DHT22;4130;48.740;9.132;2022-10-03T02:14:04;10.10;99.90
8178;DHT22;4130;48.740;9.132;2022-10-03T02:16:41;10.10;99.90
8178;DHT22;4130;48.740;9.132;2022-10-03T02:19:15;10.20;99.90
8178;DHT22;4130;48.740;9.132;2022-10-03T02:21:48;10.20;99.90
8178;DHT22;4130;48.740;9.132;2022-10-03T02:24:37;10.20;99.90
8178;DHT22;4130;48.740;9.132;2022-10-03T02:30:11;10.30;99.90
8178;DHT22;4130;48.740;9.132;2022-10-03T02:33:27;10.30;99.90
8178;DHT22;4130;48.740;9.132;2022-10-03T02:36:24;10.30;99.90
8178;DHT22;4130;48.740;9.132;2022-10-03T02:39:33;10.30;99.90
8178;DHT22;4130;48.740;9.132;2022-10-03T02:45:47;10.20;99.90
8178;DHT22;4130;48.740;9.132;2022-10-03T02:48:46;10.00;99.90
8178;DHT22;4130;48.740;9.132;2022-10-03T02:54:46;9.70;99.90
8178;DHT22;4130;48.740;9.132;2022-10-03T02:57:47;9.60;99.90
8178;DHT22;4130;48.740;9.132;2022-10-03T03:00:19;9.50;99.90
8178;DHT22;4130;48.740;9.132;2022-10-03T03:03:23;9.50;99.90
8178;DHT22;4130;48.740;9.132;2022-10-03T03:06:27;9.40;99.90
8178;DHT22;4130;48.740;9.132;2022-10-03T03:09:24;9.30;99.90
8178;DHT22;4130;48.740;9.132;2022-10-03T03:12:30;9.30;99.90
8178;DHT22;4130;48.740;9.132;2022-10-03T03:18:28;9.10;99.90
8178;DHT22;4130;48.740;9.132;2022-10-03T03:21:10;9.00;99.90
8178;DHT22;4130;48.740;9.132;2022-10-03T03:27:01;8.80;99.90
8178;DHT22;4130;48.740;9.132;2022-10-03T03:29:36;8.70;99.90
8178;DHT22;4130;48.740;9.132;2022-10-03T03:32:12;8.60;99.90
8178;DHT22;4130;48.740;9.132;2022-10-03T03:34:51;8.50;99.90
8178;DHT22;4130;48.740;9.132;2022-10-03T03:37:26;8.50;99.90
8178;DHT22;4130;48.740;9.132;2022-10-03T03:40:14;8.50;99.90
8178;DHT22;4130;48.740;9.132;2022-10-03T03:43:02;8.60;99.90
8178;DHT22;4130;48.740;9.132;2022-10-03T03:45:44;8.70;99.90
8178;DHT22;4130;48.740;9.132;2022-10-03T03:48:40;8.80;99.90
8178;DHT22;4130;48.740;9.132;2022-10-03T03:51:21;8.80;99.90
8178;DHT22;4130;48.740;9.132;2022-10-03T03:54:15;8.90;99.90
8178;DHT22;4130;48.740;9.132;2022-10-03T03:56:55;8.90;99.90
8178;DHT22;4130;48.740;9.132;2022-10-03T03:59:37;9.00;99.90
8178;DHT22;4130;48.740;9.132;2022-10-03T04:02:17;9.00;99.90
8178;DHT22;4130;48.740;9.132;2022-10-03T04:04:55;9.10;99.90
8178;DHT22;4130;48.740;9.132;2022-10-03T04:07:36;9.10;99.90
8178;DHT22;4130;48.740;9.132;2022-10-03T04:10:16;9.10;99.90
8178;DHT22;4130;48.740;9.132;2022-10-03T04:12:57;9.00;99.90
8178;DHT22;4130;48.740;9.132;2022-10-03T04:18:45;9.00;99.90
8178;DHT22;4130;48.740;9.132;2022-10-03T04:21:47;9.00;99.90
8178;DHT22;4130;48.740;9.132;2022-10-03T04:24:33;8.90;99.90
8178;DHT22;4130;48.740;9.132;2022-10-03T04:27:17;8.90;99.90
8178;DHT22;4130;48.740;9.132;2022-10-03T04:29:55;8.90;99.90
8178;DHT22;4130;48.740;9.132;2022-10-03T04:32:57;8.90;99.90
8178;DHT22;4130;48.740;9.132;2022-10-03T04:35:51;8.80;99.90
8178;DHT22;4130;48.740;9.132;2022-10-03T04:38:25;8.60;99.90
8178;DHT22;4130;48.740;9.132;2022-10-03T04:41:06;8.50;99.90
8178;DHT22;4130;48.740;9.132;2022-10-03T04:43:41;8.50;99.90
8178;DHT22;4130;48.740;9.132;2022-10-03T04:46:22;8.50;99.90
8178;DHT22;4130;48.740;9.132;2022-10-03T04:49:00;8.60;99.90
8178;DHT22;4130;48.740;9.132;2022-10-03T04:51:42;8.90;99.90
8178;DHT22;4130;48.740;9.132;2022-10-03T04:54:15;9.00;99.90
8178;DHT22;4130;48.740;9.132;2022-10-03T04:56:51;9.10;99.90
8178;DHT22;4130;48.740;9.132;2022-10-03T04:59:31;9.20;99.90
8178;DHT22;4130;48.740;9.132;2022-10-03T05:02:03;9.30;99.90
8178;DHT22;4130;48.740;9.132;2022-10-03T05:04:38;9.30;99.90
8178;DHT22;4130;48.740;9.132;2022-10-03T05:07:18;9.40;99.90
8178;DHT22;4130;48.740;9.132;2022-10-03T05:09:51;9.40;99.90
8178;DHT22;4130;48.740;9.132;2022-10-03T05:12:27;9.50;99.90
8178;DHT22;4130;48.740;9.132;2022-10-03T05:15:10;9.50;99.90
8178;DHT22;4130;48.740;9.132;2022-10-03T05:17:44;9.60;99.90
8178;DHT22;4130;48.740;9.132;2022-10-03T05:20:21;9.60;99.90
8178;DHT22;4130;48.740;9.132;2022-10-03T05:22:57;9.70;99.90
8178;DHT22;4130;48.740;9.132;2022-10-03T05:25:36;9.80;99.90
8178;DHT22;4130;48.740;9.132;2022-10-03T05:28:14;9.80;99.90
8178;DHT22;4130;48.740;9.132;2022-10-03T05:30:47;9.80;99.90
8178;DHT22;4130;48.740;9.132;2022-10-03T05:33:26;9.80;99.90
8178;DHT22;4130;48.740;9.132;2022-10-03T05:36:05;9.90;99.90
8178;DHT22;4130;48.740;9.132;2022-10-03T05:41:34;9.80;99.90
8178;DHT22;4130;48.740;9.132;2022-10-03T05:44:03;9.80;99.90
8178;DHT22;4130;48.740;9.132;2022-10-03T05:46:43;9.90;99.90
8178;DHT22;4130;48.740;9.132;2022-10-03T05:55:27;9.90;99.90
8178;DHT22;4130;48.740;9.132;2022-10-03T05:58:30;10.00;99.90
8178;DHT22;4130;48.740;9.132;2022-10-03T06:01:10;10.00;99.90
8178;DHT22;4130;48.740;9.132;2022-10-03T06:04:06;10.10;99.90
8178;DHT22;4130;48.740;9.132;2022-10-03T06:06:53;10.10;99.90
8178;DHT22;4130;48.740;9.132;2022-10-03T06:09:58;10.10;99.90
8178;DHT22;4130;48.740;9.132;2022-10-03T06:12:35;10.20;99.90
8178;DHT22;4130;48.740;9.132;2022-10-03T06:15:16;10.30;99.90
8178;DHT22;4130;48.740;9.132;2022-10-03T06:18:07;10.20;99.90
8178;DHT22;4130;48.740;9.132;2022-10-03T06:20:57;10.30;99.90
8178;DHT22;4130;48.740;9.132;2022-10-03T06:27:18;10.40;99.90
8178;DHT22;4130;48.740;9.132;2022-10-03T06:30:03;10.40;99.90
8178;DHT22;4130;48.740;9.132;2022-10-03T06:33:11;10.50;99.90
8178;DHT22;4130;48.740;9.132;2022-10-03T06:36:06;10.50;99.90
8178;DHT22;4130;48.740;9.132;2022-10-03T06:42:34;10.30;99.90
8178;DHT22;4130;48.740;9.132;2022-10-03T06:45:58;10.30;99.90
8178;DHT22;4130;48.740;9.132;2022-10-03T06:49:01;10.40;99.90
8178;DHT22;4130;48.740;9.132;2022-10-03T07:00:51;10.50;99.90
8178;DHT22;4130;48.740;9.132;2022-10-03T07:03:44;10.60;99.90
8178;DHT22;4130;48.740;9.132;2022-10-03T07:06:38;10.50;99.90
8178;DHT22;4130;48.740;9.132;2022-10-03T07:09:36;10.60;99.90
8178;DHT22;4130;48.740;9.132;2022-10-03T07:18:41;10.90;99.90
8178;DHT22;4130;48.740;9.132;2022-10-03T07:21:34;10.80;99.90
8178;DHT22;4130;48.740;9.132;2022-10-03T07:24:27;10.90;99.90
8178;DHT22;4130;48.740;9.132;2022-10-03T07:27:15;10.90;99.90
8178;DHT22;4130;48.740;9.132;2022-10-03T07:30:05;10.90;99.90
8178;DHT22;4130;48.740;9.132;2022-10-03T07:32:56;11.00;99.90
8178;DHT22;4130;48.740;9.132;2022-10-03T07:35:43;11.10;99.90
8178;DHT22;4130;48.740;9.132;2022-10-03T07:44:56;11.20;99.90
8178;DHT22;4130;48.740;9.132;2022-10-03T07:50:56;11.20;99.90
8178;DHT22;4130;48.740;9.132;2022-10-03T08:00:09;11.40;99.90
8178;DHT22;4130;48.740;9.132;2022-10-03T08:05:53;11.70;99.90
8178;DHT22;4130;48.740;9.132;2022-10-03T08:08:41;11.70;99.90
8178;DHT22;4130;48.740;9.132;2022-10-03T08:11:44;11.80;99.90
8178;DHT22;4130;48.740;9.132;2022-10-03T08:14:18;11.90;99.90
8178;DHT22;4130;48.740;9.132;2022-10-03T08:17:15;12.10;99.90
8178;DHT22;4130;48.740;9.132;2022-10-03T08:20:10;12.20;99.90
8178;DHT22;4130;48.740;9.132;2022-10-03T08:22:50;12.30;99.90
8178;DHT22;4130;48.740;9.132;2022-10-03T08:25:28;12.20;99.90
8178;DHT22;4130;48.740;9.132;2022-10-03T08:31:32;12.40;99.90
8178;DHT22;4130;48.740;9.132;2022-10-03T08:34:37;12.30;99.90
8178;DHT22;4130;48.740;9.132;2022-10-03T08:37:30;12.10;99.90
8178;DHT22;4130;48.740;9.132;2022-10-03T08:40:36;12.20;99.90
8178;DHT22;4130;48.740;9.132;2022-10-03T08:43:45;12.20;99.90
8178;DHT22;4130;48.740;9.132;2022-10-03T08:46:36;12.20;99.90
8178;DHT22;4130;48.740;9.132;2022-10-03T08:49:21;12.20;99.90
8178;DHT22;4130;48.740;9.132;2022-10-03T08:52:12;12.20;99.90
8178;DHT22;4130;48.740;9.132;2022-10-03T08:55:26;12.30;99.90
8178;DHT22;4130;48.740;9.132;2022-10-03T09:01:25;12.60;99.90
8178;DHT22;4130;48.740;9.132;2022-10-03T09:07:23;12.90;99.90
8178;DHT22;4130;48.740;9.132;2022-10-03T09:10:18;13.10;99.90
8178;DHT22;4130;48.740;9.132;2022-10-03T09:16:21;13.20;99.90
8178;DHT22;4130;48.740;9.132;2022-10-03T09:19:03;13.20;99.90
8178;DHT22;4130;48.740;9.132;2022-10-03T09:27:57;13.00;99.90
8178;DHT22;4130;48.740;9.132;2022-10-03T09:30:44;13.00;99.90
8178;DHT22;4130;48.740;9.132;2022-10-03T09:33:44;13.10;99.90
8178;DHT22;4130;48.740;9.132;2022-10-03T09:36:53;13.00;99.90
8178;DHT22;4130;48.740;9.132;2022-10-03T09:45:48;13.80;99.90
8178;DHT22;4130;48.740;9.132;2022-10-03T09:48:33;14.00;99.90
8178;DHT22;4130;48.740;9.132;2022-10-03T09:51:15;14.10;99.90
8178;DHT22;4130;48.740;9.132;2022-10-03T09:54:14;14.20;99.90
8178;DHT22;4130;48.740;9.132;2022-10-03T10:00:10;14.00;99.90
8178;DHT22;4130;48.740;9.132;2022-10-03T10:06:20;14.10;99.90
8178;DHT22;4130;48.740;9.132;2022-10-03T10:09:21;14.50;99.90
8178;DHT22;4130;48.740;9.132;2022-10-03T10:12:20;14.90;99.90
8178;DHT22;4130;48.740;9.132;2022-10-03T10:18:31;14.80;99.90
8178;DHT22;4130;48.740;9.132;2022-10-03T10:24:34;14.30;99.90
8178;DHT22;4130;48.740;9.132;2022-10-03T10:27:41;14.30;99.90
8178;DHT22;4130;48.740;9.132;2022-10-03T10:30:35;14.40;99.90
8178;DHT22;4130;48.740;9.132;2022-10-03T10:46:45;14.60;99.90
8178;DHT22;4130;48.740;9.132;2022-10-03T10:49:38;14.50;99.90
8178;DHT22;4130;48.740;9.132;2022-10-03T11:02:25;13.90;99.90
8178;DHT22;4130;48.740;9.132;2022-10-03T11:05:35;13.90;99.90
8178;DHT22;4130;48.740;9.132;2022-10-03T11:11:40;13.80;99.90
8178;DHT22;4130;48.740;9.132;2022-10-03T11:14:45;13.80;99.90
8178;DHT22;4130;48.740;9.132;2022-10-03T11:18:04;14.20;99.90
8178;DHT22;4130;48.740;9.132;2022-10-03T11:21:05;14.60;99.90
8178;DHT22;4130;48.740;9.132;2022-10-03T11:23:56;15.30;99.90
8178;DHT22;4130;48.740;9.132;2022-10-03T11:29:59;15.70;99.90
8178;DHT22;4130;48.740;9.132;2022-10-03T11:32:58;15.70;99.90
8178;DHT22;4130;48.740;9.132;2022-10-03T11:35:58;15.60;99.90
8178;DHT22;4130;48.740;9.132;2022-10-03T11:38:31;15.50;99.90
8178;DHT22;4130;48.740;9.132;2022-10-03T11:41:07;16.00;99.90
8178;DHT22;4130;48.740;9.132;2022-10-03T11:44:24;16.30;99.90
8178;DHT22;4130;48.740;9.132;2022-10-03T11:47:15;16.30;99.90
8178;DHT22;4130;48.740;9.132;2022-10-03T11:53:06;16.00;99.90
8178;DHT22;4130;48.740;9.132;2022-10-03T11:55:38;15.80;99.90
8178;DHT22;4130;48.740;9.132;2022-10-03T11:58:30;15.80;99.90
8178;DHT22;4130;48.740;9.132;2022-10-03T12:01:16;15.70;99.90
8178;DHT22;4130;48.740;9.132;2022-10-03T12:03:51;15.70;99.90
8178;DHT22;4130;48.740;9.132;2022-10-03T12:06:35;15.70;99.90
8178;DHT22;4130;48.740;9.132;2022-10-03T12:09:28;15.70;99.90
8178;DHT22;4130;48.740;9.132;2022-10-03T12:12:04;15.80;99.90
8178;DHT22;4130;48.740;9.132;2022-10-03T12:14:38;15.60;99.90
8178;DHT22;4130;48.740;9.132;2022-10-03T12:17:11;15.80;99.90
8178;DHT22;4130;48.740;9.132;2022-10-03T12:19:48;16.00;99.90
8178;DHT22;4130;48.740;9.132;2022-10-03T12:22:28;16.20;99.90
8178;DHT22;4130;48.740;9.132;2022-10-03T12:25:04;16.50;99.90
8178;DHT22;4130;48.740;9.132;2022-10-03T12:27:39;16.70;99.90
8178;DHT22;4130;48.740;9.132;2022-10-03T12:30:12;16.90;99.90
8178;DHT22;4130;48.740;9.132;2022-10-03T12:32:50;16.90;99.90
8178;DHT22;4130;48.740;9.132;2022-10-03T12:35:34;16.70;99.90
8178;DHT22;4130;48.740;9.132;2022-10-03T12:38:30;16.40;99.90
8178;DHT22;4130;48.740;9.132;2022-10-03T12:41:11;16.30;99.90
8178;DHT22;4130;48.740;9.132;2022-10-03T12:43:51;16.30;99.90
8178;DHT22;4130;48.740;9.132;2022-10-03T12:46:28;16.20;99.90
8178;DHT22;4130;48.740;9.132;2022-10-03T12:49:02;16.30;99.90
8178;DHT22;4130;48.740;9.132;2022-10-03T12:51:41;16.10;99.90
8178;DHT22;4130;48.740;9.132;2022-10-03T12:54:20;16.10;99.90
8178;DHT22;4130;48.740;9.132;2022-10-03T12:57:03;16.00;99.90
8178;DHT22;4130;48.740;9.132;2022-10-03T12:59:35;16.00;99.90
8178;DHT22;4130;48.740;9.132;2022-10-03T13:02:26;15.90;99.90
8178;DHT22;4130;48.740;9.132;2022-10-03T13:05:21;15.90;99.90
8178;DHT22;4130;48.740;9.132;2022-10-03T13:07:53;15.90;99.90
8178;DHT22;4130;48.740;9.132;2022-10-03T13:10:28;15.80;99.90
8178;DHT22;4130;48.740;9.132;2022-10-03T13:13:10;15.60;99.90
8178;DHT22;4130;48.740;9.132;2022-10-03T13:15:46;15.60;99.90
8178;DHT22;4130;48.740;9.132;2022-10-03T13:18:35;15.70;99.90
8178;DHT22;4130;48.740;9.132;2022-10-03T13:21:14;16.00;99.90
8178;DHT22;4130;48.740;9.132;2022-10-03T13:23:47;16.30;99.90
8178;DHT22;4130;48.740;9.132;2022-10-03T13:26:19;16.40;99.90
8178;DHT22;4130;48.740;9.132;2022-10-03T13:29:20;16.60;99.90
8178;DHT22;4130;48.740;9.132;2022-10-03T13:31:57;16.60;99.90
8178;DHT22;4130;48.740;9.132;2022-10-03T13:34:30;16.50;99.90
8178;DHT22;4130;48.740;9.132;2022-10-03T13:37:04;16.30;99.90
8178;DHT22;4130;48.740;9.132;2022-10-03T13:39:43;16.10;99.90
8178;DHT22;4130;48.740;9.132;2022-10-03T13:42:15;16.00;99.90
8178;DHT22;4130;48.740;9.132;2022-10-03T13:44:48;15.80;99.90
8178;DHT22;4130;48.740;9.132;2022-10-03T13:47:33;15.50;99.90
8178;DHT22;4130;48.740;9.132;2022-10-03T13:50:02;15.30;99.90
8178;DHT22;4130;48.740;9.132;2022-10-03T13:52:36;15.10;99.90
8178;DHT22;4130;48.740;9.132;2022-10-03T13:55:19;14.90;99.90
8178;DHT22;4130;48.740;9.132;2022-10-03T13:58:00;14.80;99.90
8178;DHT22;4130;48.740;9.132;2022-10-03T14:00:34;14.60;99.90
8178;DHT22;4130;48.740;9.132;2022-10-03T14:03:18;14.60;99.90
8178;DHT22;4130;48.740;9.132;2022-10-03T14:06:08;14.70;99.90
8178;DHT22;4130;48.740;9.132;2022-10-03T14:08:59;14.90;99.90
8178;DHT22;4130;48.740;9.132;2022-10-03T14:11:33;15.10;99.90
8178;DHT22;4130;48.740;9.132;2022-10-03T14:14:22;15.20;99.90
8178;DHT22;4130;48.740;9.132;2022-10-03T14:16:56;15.30;99.90
8178;DHT22;4130;48.740;9.132;2022-10-03T14:19:33;15.50;99.90
8178;DHT22;4130;48.740;9.132;2022-10-03T14:24:58;15.50;99.90
8178;DHT22;4130;48.740;9.132;2022-10-03T14:27:49;15.50;99.90
8178;DHT22;4130;48.740;9.132;2022-10-03T14:30:19;15.50;99.90
8178;DHT22;4130;48.740;9.132;2022-10-03T14:32:57;15.40;99.90
8178;DHT22;4130;48.740;9.132;2022-10-03T14:35:34;15.40;99.90
8178;DHT22;4130;48.740;9.132;2022-10-03T14:38:14;15.40;99.90
8178;DHT22;4130;48.740;9.132;2022-10-03T14:40:47;15.60;99.90
8178;DHT22;4130;48.740;9.132;2022-10-03T14:43:32;15.60;99.90
8178;DHT22;4130;48.740;9.132;2022-10-03T14:46:02;15.50;99.90
8178;DHT22;4130;48.740;9.132;2022-10-03T14:48:34;15.40;99.90
8178;DHT22;4130;48.740;9.132;2022-10-03T14:51:09;15.30;99.90
8178;DHT22;4130;48.740;9.132;2022-10-03T14:53:45;15.30;99.90
8178;DHT22;4130;48.740;9.132;2022-10-03T14:56:18;15.20;99.90
8178;DHT22;4130;48.740;9.132;2022-10-03T14:58:47;15.20;99.90
8178;DHT22;4130;48.740;9.132;2022-10-03T15:01:16;15.10;99.90
8178;DHT22;4130;48.740;9.132;2022-10-03T15:03:53;15.10;99.90
8178;DHT22;4130;48.740;9.132;2022-10-03T15:06:35;15.10;99.90
8178;DHT22;4130;48.740;9.132;2022-10-03T15:09:08;14.90;99.90
8178;DHT22;4130;48.740;9.132;2022-10-03T15:11:44;15.00;99.90
8178;DHT22;4130;48.740;9.132;2022-10-03T15:14:13;15.10;99.90
8178;DHT22;4130;48.740;9.132;2022-10-03T15:16:44;15.20;99.90
8178;DHT22;4130;48.740;9.132;2022-10-03T15:19:16;15.40;99.90
8178;DHT22;4130;48.740;9.132;2022-10-03T15:21:45;15.40;99.90
8178;DHT22;4130;48.740;9.132;2022-10-03T15:24:18;15.50;99.90
8178;DHT22;4130;48.740;9.132;2022-10-03T15:26:50;15.50;99.90
8178;DHT22;4130;48.740;9.132;2022-10-03T15:29:19;15.60;99.90
8178;DHT22;4130;48.740;9.132;2022-10-03T15:31:47;15.50;99.90
8178;DHT22;4130;48.740;9.132;2022-10-03T15:34:17;15.40;99.90
8178;DHT22;4130;48.740;9.132;2022-10-03T15:36:48;15.40;99.90
8178;DHT22;4130;48.740;9.132;2022-10-03T15:39:20;15.40;99.90
8178;DHT22;4130;48.740;9.132;2022-10-03T15:41:53;15.40;99.90
8178;DHT22;4130;48.740;9.132;2022-10-03T15:44:24;15.40;99.90
8178;DHT22;4130;48.740;9.132;2022-10-03T15:47:00;15.20;99.90
8178;DHT22;4130;48.740;9.132;2022-10-03T15:49:31;15.10;99.90
8178;DHT22;4130;48.740;9.132;2022-10-03T15:52:07;15.10;99.90
8178;DHT22;4130;48.740;9.132;2022-10-03T15:54:40;15.10;99.90
8178;DHT22;4130;48.740;9.132;2022-10-03T15:57:17;15.00;99.90
8178;DHT22;4130;48.740;9.132;2022-10-03T15:59:49;14.90;99.90
8178;DHT22;4130;48.740;9.132;2022-10-03T16:02:18;14.90;99.90
8178;DHT22;4130;48.740;9.132;2022-10-03T16:04:51;14.80;99.90
8178;DHT22;4130;48.740;9.132;2022-10-03T16:07:26;14.70;99.90
8178;DHT22;4130;48.740;9.132;2022-10-03T16:09:59;14.50;99.90
8178;DHT22;4130;48.740;9.132;2022-10-03T16:12:45;14.40;99.90
8178;DHT22;4130;48.740;9.132;2022-10-03T16:15:20;14.20;99.90
8178;DHT22;4130;48.740;9.132;2022-10-03T16:17:50;14.00;99.90
8178;DHT22;4130;48.740;9.132;2022-10-03T16:20:22;13.80;99.90
8178;DHT22;4130;48.740;9.132;2022-10-03T16:22:52;13.60;99.90
8178;DHT22;4130;48.740;9.132;2022-10-03T16:25:23;13.40;99.90
8178;DHT22;4130;48.740;9.132;2022-10-03T16:27:56;13.20;99.90
8178;DHT22;4130;48.740;9.132;2022-10-03T16:30:26;13.10;99.90
8178;DHT22;4130;48.740;9.132;2022-10-03T16:33:02;12.80;99.90
8178;DHT22;4130;48.740;9.132;2022-10-03T16:35:36;12.60;99.90
8178;DHT22;4130;48.740;9.132;2022-10-03T16:38:14;12.40;99.90
8178;DHT22;4130;48.740;9.132;2022-10-03T16:40:51;12.30;99.90
8178;DHT22;4130;48.740;9.132;2022-10-03T16:43:21;12.10;99.90
8178;DHT22;4130;48.740;9.132;2022-10-03T16:45:49;11.90;99.90
8178;DHT22;4130;48.740;9.132;2022-10-03T16:48:20;11.80;99.90
8178;DHT22;4130;48.740;9.132;2022-10-03T16:51:14;11.70;99.90
8178;DHT22;4130;48.740;9.132;2022-10-03T16:53:43;11.50;99.90
8178;DHT22;4130;48.740;9.132;2022-10-03T16:56:14;11.40;99.90
8178;DHT22;4130;48.740;9.132;2022-10-03T16:58:48;11.20;99.90
8178;DHT22;4130;48.740;9.132;2022-10-03T17:01:31;11.10;99.90
8178;DHT22;4130;48.740;9.132;2022-10-03T17:04:11;10.90;99.90
8178;DHT22;4130;48.740;9.132;2022-10-03T17:06:44;10.80;99.90
8178;DHT22;4130;48.740;9.132;2022-10-03T17:09:19;10.60;99.90
8178;DHT22;4130;48.740;9.132;2022-10-03T17:11:51;10.60;99.90
8178;DHT22;4130;48.740;9.132;2022-10-03T17:14:21;10.40;99.90
8178;DHT22;4130;48.740;9.132;2022-10-03T17:16:53;10.30;99.90
8178;DHT22;4130;48.740;9.132;2022-10-03T17:19:32;10.20;99.90
8178;DHT22;4130;48.740;9.132;2022-10-03T17:22:08;10.10;99.90
8178;DHT22;4130;48.740;9.132;2022-10-03T17:24:43;10.00;99.90
8178;DHT22;4130;48.740;9.132;2022-10-03T17:27:17;9.90;99.90
8178;DHT22;4130;48.740;9.132;2022-10-03T17:29:53;9.80;99.90
8178;DHT22;4130;48.740;9.132;2022-10-03T17:32:24;9.70;99.90
8178;DHT22;4130;48.740;9.132;2022-10-03T17:34:58;9.60;99.90
8178;DHT22;4130;48.740;9.132;2022-10-03T17:38:09;9.60;99.90
8178;DHT22;4130;48.740;9.132;2022-10-03T17:40:48;9.50;99.90
8178;DHT22;4130;48.740;9.132;2022-10-03T17:43:22;9.40;99.90
8178;DHT22;4130;48.740;9.132;2022-10-03T17:46:02;9.40;99.90
8178;DHT22;4130;48.740;9.132;2022-10-03T17:48:36;9.30;99.90
8178;DHT22;4130;48.740;9.132;2022-10-03T17:51:33;9.30;99.90
8178;DHT22;4130;48.740;9.132;2022-10-03T17:54:04;9.20;99.90
8178;DHT22;4130;48.740;9.132;2022-10-03T17:56:33;9.10;99.90
8178;DHT22;4130;48.740;9.132;2022-10-03T17:59:03;9.10;99.90
8178;DHT22;4130;48.740;9.132;2022-10-03T18:01:35;9.00;99.90
8178;DHT22;4130;48.740;9.132;2022-10-03T18:04:12;8.90;99.90
8178;DHT22;4130;48.740;9.132;2022-10-03T18:06:45;8.90;99.90
8178;DHT22;4130;48.740;9.132;2022-10-03T18:09:28;8.90;99.90
8178;DHT22;4130;48.740;9.132;2022-10-03T18:12:03;8.80;99.90
8178;DHT22;4130;48.740;9.132;2022-10-03T18:14:44;8.60;99.90
8178;DHT22;4130;48.740;9.132;2022-10-03T18:17:18;8.70;99.90
8178;DHT22;4130;48.740;9.132;2022-10-03T18:20:11;8.70;99.90
8178;DHT22;4130;48.740;9.132;2022-10-03T18:22:46;8.50;99.90
8178;DHT22;4130;48.740;9.132;2022-10-03T18:25:19;8.50;99.90
8178;DHT22;4130;48.740;9.132;2022-10-03T18:28:17;8.40;99.90
8178;DHT22;4130;48.740;9.132;2022-10-03T18:30:49;8.40;99.90
8178;DHT22;4130;48.740;9.132;2022-10-03T18:33:22;8.40;99.90
8178;DHT22;4130;48.740;9.132;2022-10-03T18:35:52;8.30;99.90
8178;DHT22;4130;48.740;9.132;2022-10-03T18:38:20;8.20;99.90
8178;DHT22;4130;48.740;9.132;2022-10-03T18:40:51;8.20;99.90
8178;DHT22;4130;48.740;9.132;2022-10-03T18:43:30;8.10;99.90
8178;DHT22;4130;48.740;9.132;2022-10-03T18:46:05;8.10;99.90
8178;DHT22;4130;48.740;9.132;2022-10-03T18:48:41;8.10;99.90
8178;DHT22;4130;48.740;9.132;2022-10-03T18:51:12;8.10;99.90
8178;DHT22;4130;48.740;9.132;2022-10-03T18:53:44;8.10;99.90
8178;DHT22;4130;48.740;9.132;2022-10-03T18:56:18;8.10;99.90
8178;DHT22;4130;48.740;9.132;2022-10-03T18:58:58;8.00;99.90
8178;DHT22;4130;48.740;9.132;2022-10-03T19:01:39;8.00;99.90
8178;DHT22;4130;48.740;9.132;2022-10-03T19:04:12;7.90;99.90
8178;DHT22;4130;48.740;9.132;2022-10-03T19:06:43;7.80;99.90
8178;DHT22;4130;48.740;9.132;2022-10-03T19:09:15;7.80;99.90
8178;DHT22;4130;48.740;9.132;2022-10-03T19:11:48;7.70;99.90
8178;DHT22;4130;48.740;9.132;2022-10-03T19:14:21;7.70;99.90
8178;DHT22;4130;48.740;9.132;2022-10-03T19:17:18;7.60;99.90
8178;DHT22;4130;48.740;9.132;2022-10-03T19:19:52;7.50;99.90
8178;DHT22;4130;48.740;9.132;2022-10-03T19:22:29;7.50;99.90
8178;DHT22;4130;48.740;9.132;2022-10-03T19:24:57;7.50;99.90
8178;DHT22;4130;48.740;9.132;2022-10-03T19:27:39;7.50;99.90
8178;DHT22;4130;48.740;9.132;2022-10-03T19:30:08;7.50;99.90
8178;DHT22;4130;48.740;9.132;2022-10-03T19:32:50;7.50;99.90
8178;DHT22;4130;48.740;9.132;2022-10-03T19:35:21;7.50;99.90
8178;DHT22;4130;48.740;9.132;2022-10-03T19:37:50;7.50;99.90
8178;DHT22;4130;48.740;9.132;2022-10-03T19:40:41;7.40;99.90
8178;DHT22;4130;48.740;9.132;2022-10-03T19:43:31;7.40;99.90
8178;DHT22;4130;48.740;9.132;2022-10-03T19:46:10;7.30;99.90
8178;DHT22;4130;48.740;9.132;2022-10-03T19:48:43;7.20;99.90
8178;DHT22;4130;48.740;9.132;2022-10-03T19:51:15;7.10;99.90
8178;DHT22;4130;48.740;9.132;2022-10-03T19:53:44;7.00;99.90
8178;DHT22;4130;48.740;9.132;2022-10-03T19:56:17;7.00;99.90
8178;DHT22;4130;48.740;9.132;2022-10-03T19:58:45;7.00;99.90
8178;DHT22;4130;48.740;9.132;2022-10-03T20:01:12;7.00;99.90
8178;DHT22;4130;48.740;9.132;2022-10-03T20:03:46;7.00;99.90
8178;DHT22;4130;48.740;9.132;2022-10-03T20:06:21;6.90;99.90
8178;DHT22;4130;48.740;9.132;2022-10-03T20:08:53;6.90;99.90